createdAt,value
2022-11-10T00:01:45.660Z,101089.31
2022-11-10T00:09:20.809Z,101093.78
2022-11-10T00:17:05.154Z,101094.69
2022-11-10T00:24:40.317Z,101110.75
2022-11-10T00:32:14.383Z,101118.84
2022-11-10T00:39:49.990Z,101117.25
2022-11-10T00:47:23.752Z,101117.25
2022-11-10T00:54:58.869Z,101124.50
2022-11-10T01:02:32.671Z,101137.84
2022-11-10T01:10:09.358Z,101133.25
2022-11-10T01:17:43.203Z,101143.91
2022-11-10T01:25:18.481Z,101150.00
2022-11-10T01:32:52.255Z,101173.13
2022-11-10T01:40:27.527Z,101181.03
2022-11-10T01:48:06.647Z,101188.03
2022-11-10T01:55:44.206Z,101195.25
2022-11-10T02:03:24.453Z,101197.16
2022-11-10T02:10:59.882Z,101204.50
2022-11-10T02:18:33.800Z,101219.69
2022-11-10T02:26:09.013Z,101225.16
2022-11-10T02:33:43.148Z,101225.25
2022-11-10T02:41:18.312Z,101234.28
2022-11-10T02:48:52.226Z,101241.63
2022-11-10T02:56:27.499Z,101253.41
2022-11-10T03:04:01.356Z,101250.88
2022-11-10T03:11:36.425Z,101272.28
2022-11-10T03:19:10.564Z,101292.81
2022-11-10T03:26:45.761Z,101286.44
2022-11-10T03:34:19.806Z,101314.06
2022-11-10T03:41:55.357Z,101323.78
2022-11-10T03:49:29.197Z,101326.25
2022-11-10T03:57:04.544Z,101332.28
2022-11-10T04:04:55.927Z,101336.56
2022-11-10T04:12:48.750Z,101342.72
2022-11-10T04:20:23.705Z,101361.50
2022-11-10T04:27:58.683Z,101369.41
2022-11-10T04:35:32.482Z,101385.31
2022-11-10T04:43:08.877Z,101390.59
2022-11-10T04:50:42.644Z,101385.19
2022-11-10T04:58:17.806Z,101398.41
2022-11-10T05:05:51.509Z,101401.78
2022-11-10T05:13:26.852Z,101414.09
2022-11-10T05:21:00.691Z,101428.19
2022-11-10T05:28:36.159Z,101444.06
2022-11-10T05:36:11.813Z,101461.75
2022-11-10T05:43:47.444Z,101472.22
2022-11-10T05:51:21.458Z,101490.81
2022-11-10T05:58:56.550Z,101508.44
2022-11-10T06:06:30.516Z,101527.88
2022-11-10T06:14:05.796Z,101534.91
2022-11-10T06:21:39.986Z,101542.63
2022-11-10T06:29:15.085Z,101561.06
2022-11-10T06:36:48.786Z,101579.53
2022-11-10T06:44:23.935Z,101601.56
2022-11-10T06:51:57.866Z,101635.34
2022-11-10T06:59:33.003Z,101643.22
2022-11-10T07:07:06.808Z,101651.44
2022-11-10T07:14:42.121Z,101670.34
2022-11-10T07:22:16.753Z,101686.50
2022-11-10T07:29:51.919Z,101697.06
2022-11-10T07:37:25.759Z,101718.44
2022-11-10T07:45:01.219Z,101726.78
2022-11-10T07:52:35.734Z,101729.22
2022-11-10T08:00:13.992Z,101736.91
2022-11-10T08:07:47.864Z,101751.44
2022-11-10T08:15:23.269Z,101756.31
2022-11-10T08:23:01.949Z,101769.53
2022-11-10T08:30:39.118Z,101778.66
2022-11-10T08:38:17.739Z,101775.38
2022-11-10T08:45:55.806Z,101788.66
2022-11-10T08:53:29.628Z,101805.78
2022-11-10T09:01:09.212Z,101816.28
2022-11-10T09:08:43.043Z,101842.44
2022-11-10T09:16:19.398Z,101848.88
2022-11-10T09:23:53.425Z,101863.06
2022-11-10T09:31:28.596Z,101858.91
2022-11-10T09:39:02.461Z,101871.34
2022-11-10T09:46:42.115Z,101886.38
2022-11-10T09:54:33.451Z,101887.25
2022-11-10T10:02:20.632Z,101880.25
2022-11-10T10:10:01.928Z,101883.47
2022-11-10T10:17:42.466Z,101884.41
2022-11-10T10:25:22.076Z,101890.81
2022-11-10T10:33:02.251Z,101888.56
2022-11-10T10:40:36.055Z,101897.72
2022-11-10T10:48:27.840Z,101910.38
2022-11-10T10:56:06.086Z,101915.66
2022-11-10T11:03:44.721Z,101921.81
2022-11-10T11:11:18.514Z,101909.22
2022-11-10T11:18:53.769Z,101908.56
2022-11-10T11:26:41.537Z,101911.44
2022-11-10T11:34:22.466Z,101915.06
2022-11-10T11:42:05.872Z,101906.47
2022-11-10T11:49:59.901Z,101918.34
2022-11-10T11:57:47.983Z,101920.34
2022-11-10T12:05:48.214Z,101921.44
2022-11-10T12:13:34.323Z,101927.72
2022-11-10T12:21:20.334Z,101918.84
2022-11-10T12:29:02.089Z,101931.66
2022-11-10T12:36:38.833Z,101950.78
2022-11-10T12:44:23.433Z,101952.44
2022-11-10T12:52:07.771Z,101955.81
2022-11-10T12:59:43.606Z,101981.69
2022-11-10T13:07:25.565Z,101970.06
2022-11-10T13:14:59.503Z,101980.19
2022-11-10T13:22:41.730Z,101991.88
2022-11-10T13:30:38.565Z,101990.88
2022-11-10T13:38:36.087Z,102012.19
2022-11-10T13:46:10.272Z,102016.50
2022-11-10T13:53:56.720Z,102001.16
2022-11-10T14:01:30.802Z,102004.69
2022-11-10T14:09:23.829Z,102025.22
2022-11-10T14:16:58.053Z,102030.59
2022-11-10T14:24:38.079Z,102047.59
2022-11-10T14:32:18.449Z,102047.50
2022-11-10T14:39:57.259Z,102051.84
2022-11-10T14:47:32.270Z,102070.53
2022-11-10T14:55:10.029Z,102081.06
2022-11-10T15:02:44.391Z,102097.91
2022-11-10T15:10:22.423Z,102104.91
2022-11-10T15:17:56.323Z,102112.69
2022-11-10T15:25:40.761Z,102108.75
2022-11-10T15:33:21.588Z,102116.50
2022-11-10T15:41:08.060Z,102135.84
2022-11-10T15:48:44.428Z,102144.38
2022-11-10T15:56:21.295Z,102141.25
2022-11-10T16:03:55.102Z,102129.31
2022-11-10T16:11:31.717Z,102128.06
2022-11-10T16:19:06.084Z,102133.84
2022-11-10T16:26:41.239Z,102144.09
2022-11-10T16:34:15.756Z,102160.63
2022-11-10T16:41:51.105Z,102172.66
2022-11-10T16:49:31.408Z,102193.69
2022-11-10T16:57:13.394Z,102196.91
2022-11-10T17:04:47.526Z,102193.84
2022-11-10T17:12:22.740Z,102189.19
2022-11-10T17:19:56.807Z,102210.44
2022-11-10T17:27:37.705Z,102219.38
2022-11-10T17:35:11.915Z,102248.00
2022-11-10T17:42:48.325Z,102257.81
2022-11-10T17:50:24.924Z,102247.03
2022-11-10T17:58:00.175Z,102254.19
2022-11-10T18:05:34.312Z,102252.41
2022-11-10T18:13:10.051Z,102243.44
2022-11-10T18:20:45.406Z,102243.50
2022-11-10T18:28:20.838Z,102241.69
2022-11-10T18:35:59.659Z,102256.00
2022-11-10T18:43:35.992Z,102254.25
2022-11-10T18:51:10.091Z,102267.81
2022-11-10T18:58:45.285Z,102278.59
2022-11-10T19:06:19.581Z,102276.91
2022-11-10T19:13:54.922Z,102284.06
2022-11-10T19:21:28.987Z,102306.41
2022-11-10T19:29:04.353Z,102284.19
2022-11-10T19:36:38.208Z,102305.78
2022-11-10T19:44:13.423Z,102281.81
2022-11-10T19:51:47.535Z,102297.09
2022-11-10T19:59:22.911Z,102298.91
2022-11-10T20:07:10.544Z,102299.84
2022-11-10T20:14:46.363Z,102303.50
2022-11-10T20:22:20.184Z,102316.00
2022-11-10T20:29:55.368Z,102328.56
2022-11-10T20:37:33.168Z,102339.44
2022-11-10T20:45:09.633Z,102349.16
2022-11-10T20:52:43.457Z,102360.63
2022-11-10T21:00:19.154Z,102366.00
2022-11-10T21:07:53.286Z,102373.00
2022-11-10T21:15:29.072Z,102379.97
2022-11-10T21:23:03.690Z,102380.63
2022-11-10T21:30:39.526Z,102379.38
2022-11-10T21:38:14.117Z,102382.75
2022-11-10T21:45:49.262Z,102374.31
2022-11-10T21:53:23.892Z,102365.13
2022-11-10T22:01:03.171Z,102361.91
2022-11-10T22:08:38.326Z,102364.31
2022-11-10T22:16:40.063Z,102383.47
2022-11-10T22:24:26.814Z,102391.25
2022-11-10T22:32:02.498Z,102405.88
2022-11-10T22:39:53.740Z,102407.34
2022-11-10T22:47:48.940Z,102423.94
2022-11-10T22:55:23.377Z,102421.00
2022-11-10T23:02:58.496Z,102419.81
2022-11-10T23:10:32.337Z,102419.50
2022-11-10T23:18:07.558Z,102419.22
2022-11-10T23:25:41.366Z,102443.00
2022-11-10T23:33:16.606Z,102441.38
2022-11-10T23:40:54.952Z,102436.66
2022-11-10T23:48:30.134Z,102435.34
2022-11-10T23:56:07.647Z,102435.72
